createdAt,value
2023-02-07T00:00:17.318Z,87.20
2023-02-07T00:03:04.921Z,66.90
2023-02-07T00:05:32.472Z,69.70
2023-02-07T00:07:59.991Z,67.60
2023-02-07T00:10:27.712Z,66.80
2023-02-07T00:12:55.247Z,74.00
2023-02-07T00:15:22.817Z,106.20
2023-02-07T00:17:50.760Z,98.40
2023-02-07T00:20:18.389Z,112.50
2023-02-07T00:22:45.962Z,74.80
2023-02-07T00:25:13.642Z,84.70
2023-02-07T00:27:41.199Z,89.50
2023-02-07T00:30:08.784Z,63.20
2023-02-07T00:32:36.398Z,41.70
2023-02-07T00:35:03.913Z,76.80
2023-02-07T00:37:31.658Z,45.40
2023-02-07T00:39:59.270Z,48.10
2023-02-07T00:42:27.096Z,48.50
2023-02-07T00:44:54.795Z,66.40
2023-02-07T00:47:22.329Z,76.00
2023-02-07T00:49:49.853Z,53.80
2023-02-07T00:52:17.463Z,55.60
2023-02-07T00:54:45.067Z,64.70
2023-02-07T00:57:12.632Z,84.10
2023-02-07T00:59:40.270Z,62.70
2023-02-07T01:02:07.815Z,54.50
2023-02-07T01:04:35.384Z,44.10
2023-02-07T01:07:02.985Z,51.10
2023-02-07T01:09:30.614Z,51.00
2023-02-07T01:11:58.168Z,43.60
2023-02-07T01:14:25.925Z,39.20
2023-02-07T01:16:53.524Z,43.60
2023-02-07T01:19:21.081Z,25.10
2023-02-07T01:21:48.702Z,41.30
2023-02-07T01:24:16.360Z,39.30
2023-02-07T01:26:43.882Z,42.00
2023-02-07T01:29:11.416Z,44.80
2023-02-07T01:31:39.248Z,44.00
2023-02-07T01:34:06.858Z,42.40
2023-02-07T01:36:34.533Z,38.30
2023-02-07T01:39:04.047Z,47.30
2023-02-07T01:41:31.688Z,25.50
2023-02-07T01:43:59.222Z,30.70
2023-02-07T01:46:26.914Z,29.30
2023-02-07T01:48:55.558Z,23.80
2023-02-07T01:51:23.124Z,38.90
2023-02-07T01:53:50.736Z,51.70
2023-02-07T01:56:30.772Z,42.10
2023-02-07T01:58:59.180Z,35.50
2023-02-07T02:01:26.803Z,19.50
2023-02-07T02:03:55.805Z,14.40
2023-02-07T02:06:23.514Z,40.90
2023-02-07T02:08:51.058Z,30.10
2023-02-07T02:11:18.555Z,26.80
2023-02-07T02:13:46.200Z,25.70
2023-02-07T02:16:13.851Z,30.60
2023-02-07T02:18:41.442Z,14.80
2023-02-07T02:21:09.004Z,30.50
2023-02-07T02:23:36.677Z,22.50
2023-02-07T02:26:04.306Z,29.50
2023-02-07T02:28:31.884Z,46.80
2023-02-07T02:30:59.486Z,48.30
2023-02-07T02:33:27.278Z,42.70
2023-02-07T02:35:54.849Z,52.50
2023-02-07T02:38:22.502Z,64.60
2023-02-07T02:40:50.232Z,52.70
2023-02-07T02:43:17.783Z,43.00
2023-02-07T02:45:45.284Z,19.70
2023-02-07T02:48:13.005Z,13.90
2023-02-07T02:50:40.799Z,30.70
2023-02-07T02:53:08.339Z,32.30
2023-02-07T02:55:36.188Z,35.00
2023-02-07T02:58:04.020Z,29.00
2023-02-07T03:00:31.650Z,32.70
2023-02-07T03:02:59.644Z,33.50
2023-02-07T03:05:27.300Z,32.70
2023-02-07T03:07:54.941Z,29.90
2023-02-07T03:10:22.436Z,41.00
2023-02-07T03:12:50.024Z,36.40
2023-02-07T03:15:17.570Z,35.80
2023-02-07T03:17:45.107Z,37.50
2023-02-07T03:20:12.698Z,31.30
2023-02-07T03:22:40.305Z,35.70
2023-02-07T03:25:07.832Z,30.30
2023-02-07T03:27:35.430Z,28.60
2023-02-07T03:30:03.001Z,31.70
2023-02-07T03:32:30.819Z,34.80
2023-02-07T03:34:58.362Z,30.10
2023-02-07T03:37:25.943Z,20.90
2023-02-07T03:39:53.548Z,33.20
2023-02-07T03:42:21.390Z,19.60
2023-02-07T03:44:49.037Z,18.40
2023-02-07T03:47:16.671Z,18.90
2023-02-07T03:49:44.239Z,26.80
2023-02-07T03:52:11.794Z,23.70
2023-02-07T03:54:39.337Z,33.00
2023-02-07T03:57:07.158Z,32.60
2023-02-07T03:59:34.664Z,32.20
2023-02-07T04:02:02.380Z,16.00
2023-02-07T04:04:30.028Z,17.50
2023-02-07T04:06:57.595Z,9.80
2023-02-07T04:09:25.151Z,8.30
2023-02-07T04:11:52.728Z,8.10
2023-02-07T04:14:21.475Z,25.10
2023-02-07T04:16:49.245Z,19.30
2023-02-07T04:19:16.849Z,19.60
2023-02-07T04:21:44.392Z,31.60
2023-02-07T04:24:12.006Z,28.70
2023-02-07T04:26:39.603Z,12.30
2023-02-07T04:29:07.166Z,13.50
2023-02-07T04:31:34.769Z,10.00
2023-02-07T04:34:02.422Z,18.80
2023-02-07T04:36:31.119Z,17.10
2023-02-07T04:38:58.803Z,22.20
2023-02-07T04:41:26.500Z,21.40
2023-02-07T04:43:54.259Z,24.00
2023-02-07T04:46:21.800Z,17.90
2023-02-07T04:48:49.682Z,19.70
2023-02-07T04:51:17.225Z,19.00
2023-02-07T04:53:44.799Z,25.90
2023-02-07T04:56:12.536Z,29.90
2023-02-07T04:58:40.132Z,37.00
2023-02-07T05:01:07.685Z,33.70
2023-02-07T05:03:35.330Z,35.30
2023-02-07T05:06:02.961Z,34.30
2023-02-07T05:08:30.524Z,25.40
2023-02-07T05:10:58.112Z,28.90
2023-02-07T05:13:25.655Z,13.70
2023-02-07T05:15:53.213Z,15.50
2023-02-07T05:18:21.383Z,14.20
2023-02-07T05:20:50.869Z,15.10
2023-02-07T05:23:19.789Z,15.00
2023-02-07T05:25:47.419Z,12.20
2023-02-07T05:28:14.984Z,16.70
2023-02-07T05:30:42.561Z,16.20
2023-02-07T05:33:10.226Z,15.10
2023-02-07T05:35:38.073Z,14.00
2023-02-07T05:38:07.574Z,26.70
2023-02-07T05:40:35.228Z,24.70
2023-02-07T05:43:02.780Z,28.10
2023-02-07T05:45:30.479Z,24.10
2023-02-07T05:47:58.335Z,33.30
2023-02-07T05:50:25.856Z,30.00
2023-02-07T05:52:53.406Z,32.80
2023-02-07T05:55:21.002Z,41.30
2023-02-07T05:57:48.530Z,30.20
2023-02-07T06:00:16.067Z,26.60
2023-02-07T06:02:43.727Z,27.70
2023-02-07T06:05:11.449Z,25.60
2023-02-07T06:07:39.027Z,17.60
2023-02-07T06:10:06.673Z,24.80
2023-02-07T06:12:34.224Z,20.20
2023-02-07T06:15:01.810Z,23.20
2023-02-07T06:17:29.527Z,18.70
2023-02-07T06:19:57.054Z,21.70
2023-02-07T06:22:24.691Z,20.70
2023-02-07T06:24:52.309Z,40.10
2023-02-07T06:27:19.955Z,28.80
2023-02-07T06:29:47.561Z,32.60
2023-02-07T06:32:15.099Z,33.70
2023-02-07T06:34:42.626Z,27.50
2023-02-07T06:37:10.231Z,31.70
2023-02-07T06:39:37.855Z,22.20
2023-02-07T06:42:06.187Z,26.90
2023-02-07T06:44:33.796Z,30.20
2023-02-07T06:47:01.679Z,21.50
2023-02-07T06:49:29.219Z,29.10
2023-02-07T06:51:56.768Z,26.50
2023-02-07T06:54:24.315Z,10.50
2023-02-07T06:56:51.876Z,18.70
2023-02-07T06:59:19.454Z,33.50
2023-02-07T07:01:49.405Z,33.00
2023-02-07T07:04:18.436Z,32.10
2023-02-07T07:06:46.169Z,30.30
2023-02-07T07:09:13.808Z,19.40
2023-02-07T07:11:43.337Z,26.80
2023-02-07T07:14:11.014Z,31.00
2023-02-07T07:16:38.639Z,36.00
2023-02-07T07:19:06.244Z,39.70
2023-02-07T07:21:33.769Z,34.00
2023-02-07T07:24:01.432Z,30.40
2023-02-07T07:26:39.532Z,32.80
2023-02-07T07:29:14.580Z,39.50
2023-02-07T07:31:42.193Z,31.10
2023-02-07T07:34:09.735Z,45.80
2023-02-07T07:36:37.387Z,56.00
2023-02-07T07:39:04.993Z,44.70
2023-02-07T07:41:32.523Z,39.60
2023-02-07T07:44:00.310Z,34.20
2023-02-07T07:46:27.941Z,42.40
2023-02-07T07:48:55.793Z,75.90
2023-02-07T07:51:23.500Z,87.40
2023-02-07T07:53:51.036Z,80.90
2023-02-07T07:56:18.643Z,66.30
2023-02-07T07:58:46.346Z,57.90
2023-02-07T08:01:13.922Z,63.90
2023-02-07T08:03:41.533Z,61.40
2023-02-07T08:06:09.510Z,62.00
2023-02-07T08:08:37.120Z,74.10
2023-02-07T08:11:04.679Z,60.10
2023-02-07T08:13:33.106Z,61.30
2023-02-07T08:16:01.144Z,38.80
2023-02-07T08:18:29.136Z,53.90
2023-02-07T08:20:56.886Z,48.00
2023-02-07T08:23:24.554Z,52.70
2023-02-07T08:25:52.176Z,55.90
2023-02-07T08:28:19.868Z,36.50
2023-02-07T08:30:47.706Z,36.00
2023-02-07T08:33:15.401Z,42.80
2023-02-07T08:35:43.459Z,40.80
2023-02-07T08:38:11.069Z,32.80
2023-02-07T08:40:38.952Z,37.70
2023-02-07T08:43:12.349Z,36.90
2023-02-07T08:45:40.086Z,47.70
2023-02-07T08:48:07.748Z,51.00
2023-02-07T08:50:35.464Z,56.80
2023-02-07T08:53:02.975Z,42.90
2023-02-07T08:55:30.933Z,45.20
2023-02-07T08:57:58.546Z,49.50
2023-02-07T09:00:26.373Z,47.00
2023-02-07T09:02:53.948Z,47.20
2023-02-07T09:05:21.662Z,48.10
2023-02-07T09:07:49.184Z,51.40
2023-02-07T09:10:16.696Z,48.10
2023-02-07T09:12:44.303Z,55.30
2023-02-07T09:15:11.861Z,49.70
2023-02-07T09:17:39.429Z,68.00
2023-02-07T09:20:07.127Z,61.80
2023-02-07T09:22:54.690Z,55.40
2023-02-07T09:25:22.259Z,69.90
2023-02-07T09:27:49.802Z,58.10
2023-02-07T09:30:17.357Z,58.50
2023-02-07T09:32:44.959Z,65.10
2023-02-07T09:35:12.652Z,58.50
2023-02-07T09:37:49.273Z,56.70
2023-02-07T09:40:19.169Z,67.90
2023-02-07T09:42:46.840Z,73.20
2023-02-07T09:45:14.571Z,70.30
2023-02-07T09:47:42.243Z,53.40
2023-02-07T09:50:09.759Z,50.30
2023-02-07T09:52:37.366Z,49.50
2023-02-07T09:55:05.667Z,52.00
2023-02-07T09:57:37.623Z,62.00
2023-02-07T10:00:05.166Z,66.20
2023-02-07T10:02:33.199Z,60.90
2023-02-07T10:05:00.766Z,73.10
2023-02-07T10:07:28.372Z,61.50
2023-02-07T10:09:56.520Z,61.90
2023-02-07T10:12:24.140Z,65.10
2023-02-07T10:14:51.680Z,61.60
2023-02-07T10:17:30.564Z,63.90
2023-02-07T10:19:58.891Z,68.00
2023-02-07T10:22:26.464Z,65.50
2023-02-07T10:24:54.031Z,77.60
2023-02-07T10:27:21.622Z,73.10
2023-02-07T10:29:49.231Z,61.80
2023-02-07T10:32:16.755Z,57.10
2023-02-07T10:34:44.291Z,67.50
2023-02-07T10:37:11.868Z,72.00
2023-02-07T10:39:39.831Z,64.20
2023-02-07T10:42:07.436Z,29.40
2023-02-07T10:44:35.061Z,36.00
2023-02-07T10:47:02.843Z,30.20
2023-02-07T10:49:30.431Z,66.20
2023-02-07T10:51:58.078Z,45.80
2023-02-07T10:54:25.808Z,36.80
2023-02-07T10:56:56.002Z,46.80
2023-02-07T10:59:25.462Z,58.50
2023-02-07T11:01:52.973Z,47.40
2023-02-07T11:04:20.573Z,54.80
2023-02-07T11:06:48.244Z,51.20
2023-02-07T11:09:15.799Z,49.70
2023-02-07T11:11:45.695Z,55.70
2023-02-07T11:14:13.293Z,49.90
2023-02-07T11:16:40.822Z,50.70
2023-02-07T11:19:08.372Z,45.90
2023-02-07T11:21:36.148Z,50.40
2023-02-07T11:24:03.652Z,63.70
2023-02-07T11:26:31.525Z,74.80
2023-02-07T11:28:59.308Z,60.20
2023-02-07T11:31:26.883Z,23.40
2023-02-07T11:33:54.543Z,35.30
2023-02-07T11:36:26.181Z,46.00
2023-02-07T11:38:53.948Z,49.70
2023-02-07T11:41:21.665Z,43.30
2023-02-07T11:43:49.236Z,62.90
2023-02-07T11:46:16.813Z,79.40
2023-02-07T11:48:44.433Z,82.60
2023-02-07T11:51:12.423Z,88.60
2023-02-07T11:53:39.972Z,72.20
2023-02-07T11:56:07.897Z,62.00
2023-02-07T11:58:35.657Z,60.30
2023-02-07T12:01:04.206Z,60.90
2023-02-07T12:03:31.903Z,54.50
2023-02-07T12:05:59.458Z,60.10
2023-02-07T12:08:26.991Z,72.80
2023-02-07T12:10:54.504Z,63.40
2023-02-07T12:13:22.201Z,74.00
2023-02-07T12:15:49.771Z,55.20
2023-02-07T12:18:17.689Z,51.10
2023-02-07T12:20:45.277Z,50.10
2023-02-07T12:23:40.357Z,47.10
2023-02-07T12:26:01.596Z,41.40
2023-02-07T12:28:29.122Z,33.40
2023-02-07T12:30:56.675Z,34.00
2023-02-07T12:33:24.350Z,36.00
2023-02-07T12:35:57.175Z,32.40
2023-02-07T12:38:26.749Z,23.30
2023-02-07T12:40:54.504Z,29.10
2023-02-07T12:43:22.745Z,27.10
2023-02-07T12:45:51.634Z,32.70
2023-02-07T12:48:19.229Z,30.90
2023-02-07T12:50:46.735Z,24.90
2023-02-07T12:53:14.471Z,30.20
2023-02-07T12:55:42.075Z,25.30
2023-02-07T12:58:09.624Z,20.60
2023-02-07T13:00:37.365Z,20.20
2023-02-07T13:03:05.314Z,33.90
2023-02-07T13:05:33.046Z,24.50
2023-02-07T13:08:00.659Z,17.30
2023-02-07T13:10:29.077Z,12.50
2023-02-07T13:12:56.577Z,20.90
2023-02-07T13:15:24.225Z,16.00
2023-02-07T13:17:51.812Z,21.80
2023-02-07T13:20:19.326Z,14.80
2023-02-07T13:22:46.928Z,15.50
2023-02-07T13:25:14.443Z,22.00
2023-02-07T13:27:42.053Z,19.70
2023-02-07T13:30:11.437Z,19.10
2023-02-07T13:32:39.031Z,20.70
2023-02-07T13:35:06.568Z,19.50
2023-02-07T13:37:34.279Z,33.40
2023-02-07T13:40:01.815Z,25.90
2023-02-07T13:42:29.564Z,32.60
2023-02-07T13:44:57.659Z,20.80
2023-02-07T13:47:25.164Z,19.70
2023-02-07T13:49:52.699Z,20.80
2023-02-07T13:52:20.288Z,22.80
2023-02-07T13:54:47.791Z,18.50
2023-02-07T13:57:34.530Z,25.50
2023-02-07T14:00:02.086Z,23.80
2023-02-07T14:02:30.528Z,22.20
2023-02-07T14:05:01.010Z,25.70
2023-02-07T14:07:29.819Z,32.00
2023-02-07T14:09:58.860Z,27.00
2023-02-07T14:12:26.571Z,30.90
2023-02-07T14:15:02.609Z,32.80
2023-02-07T14:17:30.807Z,32.40
2023-02-07T14:19:58.366Z,47.90
2023-02-07T14:22:27.040Z,58.10
2023-02-07T14:24:54.714Z,58.00
2023-02-07T14:27:22.454Z,41.10
2023-02-07T14:29:49.968Z,26.70
2023-02-07T14:32:17.786Z,25.80
2023-02-07T14:34:45.536Z,30.60
2023-02-07T14:37:14.283Z,22.80
2023-02-07T14:39:41.840Z,27.20
2023-02-07T14:42:09.388Z,21.70
2023-02-07T14:44:37.039Z,23.10
2023-02-07T14:47:04.750Z,22.90
2023-02-07T14:49:32.555Z,21.30
2023-02-07T14:52:00.128Z,23.30
2023-02-07T14:54:27.780Z,21.10
2023-02-07T14:56:55.329Z,24.80
2023-02-07T14:59:22.858Z,24.40
2023-02-07T15:01:50.486Z,25.90
2023-02-07T15:04:17.974Z,27.60
2023-02-07T15:06:45.466Z,35.80
2023-02-07T15:09:13.233Z,42.20
2023-02-07T15:11:40.775Z,36.50
2023-02-07T15:14:08.326Z,50.40
2023-02-07T15:16:40.365Z,42.10
2023-02-07T15:19:07.928Z,39.30
2023-02-07T15:21:35.528Z,29.10
2023-02-07T15:24:03.121Z,22.00
2023-02-07T15:26:30.893Z,41.50
2023-02-07T15:28:59.129Z,56.40
2023-02-07T15:31:26.862Z,121.70
2023-02-07T15:33:54.531Z,102.80
2023-02-07T15:36:22.115Z,64.40
2023-02-07T15:38:50.166Z,51.70
2023-02-07T15:41:17.765Z,55.40
2023-02-07T15:43:45.335Z,57.90
2023-02-07T15:46:12.918Z,45.50
2023-02-07T15:48:40.525Z,35.50
2023-02-07T15:51:08.161Z,27.10
2023-02-07T15:53:35.895Z,34.60
2023-02-07T15:56:03.405Z,38.20
2023-02-07T15:58:30.925Z,40.50
2023-02-07T16:00:58.846Z,48.90
2023-02-07T16:03:28.802Z,47.50
2023-02-07T16:05:56.324Z,45.70
2023-02-07T16:08:23.905Z,49.00
2023-02-07T16:10:51.461Z,59.70
2023-02-07T16:13:19.271Z,56.00
2023-02-07T16:15:46.831Z,43.20
2023-02-07T16:18:14.433Z,51.30
2023-02-07T16:20:42.178Z,47.70
2023-02-07T16:23:10.169Z,34.30
2023-02-07T16:25:37.804Z,83.40
2023-02-07T16:28:05.411Z,75.80
2023-02-07T16:30:33.037Z,71.20
2023-02-07T16:33:00.649Z,48.20
2023-02-07T16:35:28.277Z,48.60
2023-02-07T16:37:55.950Z,40.00
2023-02-07T16:40:23.754Z,48.40
2023-02-07T16:42:51.376Z,37.70
2023-02-07T16:45:19.214Z,59.30
2023-02-07T16:47:47.000Z,32.70
2023-02-07T16:50:15.147Z,31.50
2023-02-07T16:52:42.718Z,57.10
2023-02-07T16:55:10.525Z,37.20
2023-02-07T16:57:38.646Z,59.30
2023-02-07T17:00:06.493Z,72.00
2023-02-07T17:02:34.118Z,49.50
2023-02-07T17:05:03.500Z,15.90
2023-02-07T17:07:31.453Z,19.10
2023-02-07T17:09:58.979Z,22.10
2023-02-07T17:12:26.948Z,27.30
2023-02-07T17:14:54.625Z,27.40
2023-02-07T17:17:23.337Z,19.90
2023-02-07T17:19:51.304Z,26.40
2023-02-07T17:22:19.031Z,30.70
2023-02-07T17:24:47.873Z,29.80
2023-02-07T17:27:15.617Z,23.40
2023-02-07T17:29:44.986Z,48.50
2023-02-07T17:32:12.587Z,37.10
2023-02-07T17:34:40.466Z,39.10
2023-02-07T17:37:08.080Z,36.30
2023-02-07T17:39:35.843Z,40.40
2023-02-07T17:42:03.755Z,65.30
2023-02-07T17:44:32.981Z,65.40
2023-02-07T17:47:01.541Z,47.80
2023-02-07T17:49:29.609Z,43.60
2023-02-07T17:51:57.221Z,25.20
2023-02-07T17:54:25.086Z,40.50
2023-02-07T17:56:52.626Z,42.30
2023-02-07T17:59:20.300Z,51.40
2023-02-07T18:01:48.072Z,70.10
2023-02-07T18:04:16.143Z,68.70
2023-02-07T18:06:44.090Z,29.90
2023-02-07T18:09:11.908Z,48.90
2023-02-07T18:11:39.443Z,31.10
2023-02-07T18:14:07.262Z,31.60
2023-02-07T18:16:34.787Z,30.50
2023-02-07T18:19:03.899Z,58.30
2023-02-07T18:21:31.685Z,62.50
2023-02-07T18:23:59.516Z,58.70
2023-02-07T18:26:27.122Z,55.30
2023-02-07T18:28:54.968Z,47.80
2023-02-07T18:31:22.745Z,39.20
2023-02-07T18:33:50.336Z,40.20
2023-02-07T18:36:18.198Z,43.90
2023-02-07T18:38:45.844Z,38.60
2023-02-07T18:41:13.432Z,40.20
2023-02-07T18:43:41.193Z,42.00
2023-02-07T18:46:09.125Z,48.80
2023-02-07T18:48:37.016Z,56.40
2023-02-07T18:51:04.623Z,54.40
2023-02-07T18:53:32.793Z,56.90
2023-02-07T18:56:00.591Z,62.40
2023-02-07T18:58:28.207Z,61.90
2023-02-07T19:00:55.988Z,58.50
2023-02-07T19:03:23.807Z,73.20
2023-02-07T19:05:51.409Z,64.30
2023-02-07T19:08:18.932Z,54.90
2023-02-07T19:10:46.444Z,65.60
2023-02-07T19:13:14.890Z,65.50
2023-02-07T19:15:42.722Z,58.20
2023-02-07T19:18:10.574Z,79.40
2023-02-07T19:20:38.698Z,61.70
2023-02-07T19:23:07.614Z,56.40
2023-02-07T19:25:35.434Z,33.10
2023-02-07T19:28:03.348Z,62.50
2023-02-07T19:30:31.283Z,71.30
2023-02-07T19:32:59.951Z,93.00
2023-02-07T19:35:28.310Z,93.60
2023-02-07T19:37:56.181Z,92.50
2023-02-07T19:40:24.096Z,86.60
2023-02-07T19:42:52.012Z,90.90
2023-02-07T19:45:19.798Z,87.10
2023-02-07T19:47:47.493Z,86.80
2023-02-07T19:50:15.573Z,84.90
2023-02-07T19:52:44.635Z,94.30
2023-02-07T19:55:12.500Z,104.20
2023-02-07T19:57:42.013Z,141.20
2023-02-07T20:00:09.848Z,101.80
2023-02-07T20:02:37.610Z,84.90
2023-02-07T20:05:05.739Z,69.30
2023-02-07T20:07:33.333Z,60.70
2023-02-07T20:10:01.236Z,56.60
2023-02-07T20:12:28.934Z,59.90
2023-02-07T20:14:56.433Z,87.00
2023-02-07T20:17:23.944Z,74.30
2023-02-07T20:19:52.095Z,62.60
2023-02-07T20:22:19.590Z,114.00
2023-02-07T20:24:47.090Z,133.50
2023-02-07T20:27:15.083Z,134.40
2023-02-07T20:29:42.827Z,57.00
2023-02-07T20:32:14.300Z,120.00
2023-02-07T20:34:41.960Z,125.40
2023-02-07T20:37:09.855Z,122.10
2023-02-07T20:39:37.699Z,116.20
2023-02-07T20:42:05.846Z,92.70
2023-02-07T20:44:33.642Z,94.40
2023-02-07T20:47:01.521Z,120.50
2023-02-07T20:49:29.324Z,108.20
2023-02-07T20:51:56.877Z,90.70
2023-02-07T20:54:24.439Z,117.30
2023-02-07T20:56:52.039Z,71.00
2023-02-07T20:59:19.612Z,143.50
2023-02-07T21:01:47.466Z,141.20
2023-02-07T21:04:15.140Z,150.40
2023-02-07T21:06:42.794Z,148.00
2023-02-07T21:09:10.708Z,125.00
2023-02-07T21:11:39.275Z,132.50
2023-02-07T21:14:06.851Z,122.90
2023-02-07T21:16:34.594Z,136.20
2023-02-07T21:19:02.323Z,141.90
2023-02-07T21:21:29.919Z,145.20
2023-02-07T21:23:57.536Z,133.80
2023-02-07T21:26:27.041Z,124.90
2023-02-07T21:28:55.117Z,99.40
2023-02-07T21:31:22.634Z,99.80
2023-02-07T21:33:51.309Z,87.70
2023-02-07T21:36:18.919Z,95.70
2023-02-07T21:38:46.711Z,95.40
2023-02-07T21:41:14.303Z,109.70
2023-02-07T21:43:42.174Z,113.00
2023-02-07T21:46:09.773Z,116.80
2023-02-07T21:48:37.900Z,97.40
2023-02-07T21:51:05.436Z,115.10
2023-02-07T21:53:33.051Z,110.40
2023-02-07T21:56:00.904Z,120.80
2023-02-07T21:58:28.504Z,132.20
2023-02-07T22:00:56.106Z,131.80
2023-02-07T22:03:23.842Z,143.40
2023-02-07T22:05:52.213Z,165.90
2023-02-07T22:08:19.771Z,140.30
2023-02-07T22:10:47.307Z,148.50
2023-02-07T22:13:14.838Z,129.10
2023-02-07T22:15:42.340Z,107.50
2023-02-07T22:18:09.902Z,96.40
2023-02-07T22:20:37.489Z,103.60
2023-02-07T22:23:05.090Z,96.20
2023-02-07T22:25:32.821Z,74.80
2023-02-07T22:28:00.354Z,58.30
2023-02-07T22:30:27.949Z,108.10
2023-02-07T22:32:55.524Z,113.00
2023-02-07T22:35:23.245Z,70.70
2023-02-07T22:37:50.760Z,61.60
2023-02-07T22:40:18.501Z,72.10
2023-02-07T22:42:46.033Z,83.60
2023-02-07T22:45:13.550Z,94.50
2023-02-07T22:47:41.147Z,94.00
2023-02-07T22:50:08.948Z,106.70
2023-02-07T22:52:36.462Z,104.30
2023-02-07T22:55:04.300Z,126.80
2023-02-07T22:57:31.869Z,106.60
2023-02-07T23:00:00.890Z,94.40
2023-02-07T23:02:28.718Z,132.00
2023-02-07T23:04:56.515Z,160.80
2023-02-07T23:07:26.661Z,141.50
2023-02-07T23:09:54.567Z,103.50
2023-02-07T23:12:22.154Z,86.70
2023-02-07T23:14:49.745Z,79.70
2023-02-07T23:17:17.408Z,72.30
2023-02-07T23:19:44.947Z,85.30
2023-02-07T23:22:12.493Z,95.10
2023-02-07T23:24:40.133Z,85.30
2023-02-07T23:27:07.662Z,69.10
2023-02-07T23:29:35.212Z,59.20
2023-02-07T23:32:02.960Z,78.60
2023-02-07T23:34:30.578Z,100.40
2023-02-07T23:36:58.208Z,78.50
2023-02-07T23:39:25.881Z,101.80
2023-02-07T23:41:53.434Z,90.70
2023-02-07T23:44:21.227Z,86.10
2023-02-07T23:46:48.817Z,87.80
2023-02-07T23:49:16.400Z,79.40
2023-02-07T23:51:45.593Z,72.90
2023-02-07T23:54:13.258Z,72.60
2023-02-07T23:56:41.182Z,61.40
2023-02-07T23:59:08.746Z,64.00
